createdAt,value
2018-09-19T06:04:04.261Z,14.10
2018-09-19T06:06:32.864Z,14.10
2018-09-19T06:09:01.088Z,14.30
2018-09-19T06:11:29.332Z,14.30
2018-09-19T06:13:57.559Z,14.30
2018-09-19T06:16:25.805Z,14.30
2018-09-19T06:18:54.032Z,14.30
2018-09-19T06:21:22.269Z,14.50
2018-09-19T06:23:50.485Z,14.60
2018-09-19T06:26:18.772Z,14.80
2018-09-19T06:28:47.021Z,14.90
2018-09-19T06:31:15.285Z,15.00
2018-09-19T06:33:43.538Z,15.20
2018-09-19T06:36:11.819Z,15.50
2018-09-19T06:38:40.065Z,15.70
2018-09-19T06:41:08.304Z,16.00
2018-09-19T06:43:36.611Z,16.20
2018-09-19T06:46:04.826Z,16.50
2018-09-19T06:48:33.080Z,16.60
2018-09-19T06:51:01.320Z,16.70
2018-09-19T06:53:29.595Z,16.70
2018-09-19T06:55:57.834Z,16.90
2018-09-19T06:58:26.117Z,17.10
2018-09-19T07:00:54.364Z,17.30
2018-09-19T07:03:22.628Z,17.40
2018-09-19T07:05:50.907Z,17.70
2018-09-19T07:08:19.128Z,17.90
2018-09-19T07:10:47.385Z,18.00
2018-09-19T07:13:15.636Z,18.20
2018-09-19T07:15:43.878Z,18.40
2018-09-19T07:18:12.135Z,18.50
2018-09-19T07:20:40.372Z,18.70
2018-09-19T07:23:08.633Z,18.90
2018-09-19T07:25:36.883Z,19.10
2018-09-19T07:28:05.139Z,19.30
2018-09-19T07:30:33.386Z,19.50
2018-09-19T07:33:01.648Z,19.70
2018-09-19T07:35:29.904Z,19.90
2018-09-19T07:37:58.179Z,20.10
2018-09-19T07:40:26.554Z,20.20
2018-09-19T07:42:54.764Z,20.40
2018-09-19T07:45:23.092Z,20.60
2018-09-19T07:47:51.335Z,20.70
2018-09-19T07:50:19.560Z,20.90
2018-09-19T07:52:47.809Z,21.10
2018-09-19T07:55:16.053Z,21.20
2018-09-19T07:57:44.313Z,21.40
2018-09-19T08:00:12.540Z,21.50
2018-09-19T08:02:40.803Z,21.50
2018-09-19T08:05:09.049Z,21.60
2018-09-19T08:07:37.595Z,21.80
2018-09-19T08:10:05.837Z,21.90
2018-09-19T08:12:34.109Z,21.90
2018-09-19T08:15:02.351Z,22.00
2018-09-19T08:17:30.627Z,22.00
2018-09-19T08:19:58.870Z,22.10
2018-09-19T08:22:27.174Z,22.30
2018-09-19T08:24:55.408Z,22.40
2018-09-19T08:27:23.660Z,22.60
2018-09-19T08:29:51.903Z,22.60
2018-09-19T08:32:20.177Z,22.80
2018-09-19T08:34:48.407Z,22.90
2018-09-19T08:37:16.636Z,23.00
2018-09-19T08:39:44.892Z,23.00
2018-09-19T08:42:13.132Z,23.00
2018-09-19T08:44:41.386Z,23.00
2018-09-19T08:47:09.615Z,23.10
2018-09-19T08:49:37.871Z,23.20
2018-09-19T08:52:06.116Z,23.20
2018-09-19T08:54:34.361Z,23.10
2018-09-19T08:57:02.618Z,23.20
2018-09-19T08:59:30.869Z,23.30
2018-09-19T09:01:59.093Z,23.40
2018-09-19T09:04:27.482Z,23.70
2018-09-19T09:06:55.720Z,24.00
2018-09-19T09:09:23.973Z,24.20
2018-09-19T09:11:52.358Z,24.40
2018-09-19T09:14:20.615Z,24.50
2018-09-19T09:16:48.857Z,24.60
2018-09-19T09:19:17.098Z,24.70
2018-09-19T09:21:45.340Z,24.60
2018-09-19T09:24:13.595Z,24.80
2018-09-19T09:26:41.881Z,25.10
2018-09-19T09:29:10.123Z,24.90
2018-09-19T09:31:38.359Z,24.90
2018-09-19T09:34:06.700Z,25.00
2018-09-19T09:36:34.926Z,25.00
2018-09-19T09:39:03.232Z,24.60
2018-09-19T09:41:31.472Z,24.70
2018-09-19T09:43:59.719Z,24.70
2018-09-19T09:46:27.988Z,24.60
2018-09-19T09:48:56.256Z,24.70
2018-09-19T09:51:24.521Z,24.80
2018-09-19T09:53:52.791Z,24.80
2018-09-19T09:56:21.052Z,25.00
2018-09-19T09:58:49.309Z,25.00
2018-09-19T10:01:17.545Z,25.00
2018-09-19T10:03:45.833Z,25.10
2018-09-19T10:06:14.084Z,25.10
2018-09-19T10:08:42.344Z,25.20
2018-09-19T10:11:10.572Z,25.20
2018-09-19T10:13:38.824Z,25.30
2018-09-19T10:16:07.112Z,25.50
2018-09-19T10:18:35.368Z,25.70
2018-09-19T10:21:03.636Z,25.80
2018-09-19T10:23:31.898Z,25.80
2018-09-19T10:26:00.147Z,25.70
2018-09-19T10:28:28.415Z,25.70
2018-09-19T10:30:56.668Z,25.50
2018-09-19T10:33:24.913Z,25.50
2018-09-19T10:35:53.161Z,25.60
2018-09-19T10:38:21.385Z,25.70
2018-09-19T10:40:49.656Z,25.80
2018-09-19T10:43:17.949Z,25.70
2018-09-19T10:45:46.212Z,25.50
2018-09-19T10:48:14.716Z,25.30
2018-09-19T10:50:42.968Z,25.30
2018-09-19T10:53:11.272Z,25.50
2018-09-19T10:55:39.532Z,25.60
2018-09-19T10:58:07.772Z,25.80
2018-09-19T11:00:36.077Z,25.90
2018-09-19T11:03:04.325Z,25.90
2018-09-19T11:05:32.577Z,26.10
2018-09-19T11:08:00.807Z,26.10
2018-09-19T11:10:29.061Z,26.10
2018-09-19T11:12:57.290Z,26.10
2018-09-19T11:15:25.540Z,26.10
2018-09-19T11:17:53.777Z,26.10
2018-09-19T11:20:22.034Z,26.10
2018-09-19T11:22:50.283Z,26.20
2018-09-19T11:25:18.558Z,26.20
2018-09-19T11:27:46.791Z,26.10
2018-09-19T11:30:15.032Z,26.30
2018-09-19T11:32:43.269Z,26.30
2018-09-19T11:35:11.533Z,26.20
2018-09-19T11:37:39.756Z,26.30
2018-09-19T11:40:08.012Z,26.50
2018-09-19T11:42:36.244Z,26.50
2018-09-19T11:45:04.622Z,26.60
2018-09-19T11:47:32.842Z,26.70
2018-09-19T11:50:01.133Z,26.70
2018-09-19T11:52:29.353Z,26.70
2018-09-19T11:54:57.594Z,26.80
2018-09-19T11:57:25.824Z,26.70
2018-09-19T11:59:54.149Z,26.80
2018-09-19T12:02:22.361Z,26.80
2018-09-19T12:04:50.612Z,26.80
2018-09-19T12:07:18.858Z,26.80
2018-09-19T12:09:47.174Z,26.70
2018-09-19T12:12:15.408Z,26.60
2018-09-19T12:14:43.648Z,26.70
2018-09-19T12:17:11.869Z,26.70
2018-09-19T12:19:40.104Z,26.80
2018-09-19T12:22:08.373Z,26.70
2018-09-19T12:24:36.648Z,26.70
2018-09-19T12:27:04.913Z,26.80
2018-09-19T12:29:33.153Z,27.00
2018-09-19T12:32:01.418Z,27.10
2018-09-19T12:34:29.663Z,27.10
2018-09-19T12:36:57.926Z,27.20
2018-09-19T12:39:26.207Z,27.10
2018-09-19T12:41:54.427Z,27.00
2018-09-19T12:44:22.681Z,27.10
2018-09-19T12:46:50.939Z,27.10
2018-09-19T12:49:19.225Z,27.20
2018-09-19T12:51:47.536Z,27.20
2018-09-19T12:54:15.772Z,27.30
2018-09-19T12:56:44.037Z,27.30
2018-09-19T12:59:12.281Z,27.30
2018-09-19T13:01:40.555Z,27.40
2018-09-19T13:04:08.804Z,27.50
2018-09-19T13:06:37.088Z,27.30
2018-09-19T13:09:08.162Z,27.10
2018-09-19T13:11:36.424Z,27.00
2018-09-19T13:14:04.647Z,27.00
2018-09-19T13:16:32.924Z,27.10
2018-09-19T13:19:01.150Z,27.20
2018-09-19T13:21:29.412Z,27.30
2018-09-19T13:23:57.688Z,27.30
2018-09-19T13:26:25.965Z,27.40
2018-09-19T13:28:54.205Z,27.40
2018-09-19T13:31:22.456Z,27.30
2018-09-19T13:33:50.687Z,27.30
2018-09-19T13:36:18.939Z,27.30
2018-09-19T13:38:47.188Z,27.40
2018-09-19T13:41:15.465Z,27.40
2018-09-19T13:43:43.715Z,27.40
2018-09-19T13:46:11.964Z,27.40
2018-09-19T13:48:42.129Z,27.40
2018-09-19T13:51:14.628Z,27.30
2018-09-19T13:53:42.868Z,27.30
2018-09-19T13:56:11.117Z,27.30
2018-09-19T13:58:39.353Z,27.30
2018-09-19T14:01:07.606Z,27.30
2018-09-19T14:03:35.860Z,27.40
2018-09-19T14:06:04.196Z,27.40
2018-09-19T14:08:32.437Z,27.40
2018-09-19T14:11:00.692Z,27.40
2018-09-19T14:13:28.920Z,27.30
2018-09-19T14:15:57.157Z,27.40
2018-09-19T14:18:25.449Z,27.40
2018-09-19T14:20:53.709Z,27.30
2018-09-19T14:23:22.049Z,27.40
2018-09-19T14:25:50.321Z,27.40
2018-09-19T14:28:18.566Z,27.30
2018-09-19T14:30:46.829Z,27.30
2018-09-19T14:33:15.074Z,27.20
2018-09-19T14:35:43.342Z,27.20
2018-09-19T14:38:12.217Z,27.30
2018-09-19T14:40:40.450Z,27.20
2018-09-19T14:43:08.732Z,27.20
2018-09-19T14:45:37.000Z,27.20
2018-09-19T14:48:05.241Z,27.10
2018-09-19T14:50:33.468Z,27.00
2018-09-19T14:53:01.741Z,27.00
2018-09-19T14:55:29.998Z,27.00
2018-09-19T14:57:58.260Z,26.90
2018-09-19T15:00:26.547Z,26.90
2018-09-19T15:02:54.764Z,26.90
2018-09-19T15:05:23.024Z,26.90
2018-09-19T15:07:51.283Z,26.90
2018-09-19T15:10:19.564Z,26.80
2018-09-19T15:12:47.832Z,26.80
2018-09-19T15:15:16.116Z,26.80
2018-09-19T15:17:44.413Z,26.70
2018-09-19T15:20:12.648Z,26.70
2018-09-19T15:22:40.906Z,26.60
2018-09-19T15:25:09.197Z,26.60
2018-09-19T15:27:37.460Z,26.50
2018-09-19T15:30:05.752Z,26.50
2018-09-19T15:32:34.012Z,26.40
2018-09-19T15:35:02.272Z,26.40
2018-09-19T15:37:30.548Z,26.30
2018-09-19T15:39:58.960Z,26.20
2018-09-19T15:42:27.242Z,26.20
2018-09-19T15:44:55.548Z,26.20
2018-09-19T15:47:23.828Z,26.10
2018-09-19T15:49:52.124Z,26.10
2018-09-19T15:52:20.432Z,26.10
2018-09-19T15:54:48.685Z,26.00
2018-09-19T15:57:16.990Z,25.90
2018-09-19T15:59:45.200Z,25.80
2018-09-19T16:02:13.467Z,25.70
2018-09-19T16:04:41.711Z,25.60
2018-09-19T16:07:10.002Z,25.50
2018-09-19T16:09:38.245Z,25.50
2018-09-19T16:12:06.481Z,25.40
2018-09-19T16:14:34.743Z,25.30
2018-09-19T16:17:02.968Z,25.20
2018-09-19T16:19:31.208Z,25.10
2018-09-19T16:21:59.432Z,25.00
2018-09-19T16:24:27.708Z,24.90
2018-09-19T16:26:55.955Z,24.70
2018-09-19T16:29:25.035Z,24.60
2018-09-19T16:31:53.280Z,24.40
2018-09-19T16:34:21.543Z,24.20
2018-09-19T16:36:49.797Z,24.10
2018-09-19T16:39:18.068Z,23.90
2018-09-19T16:41:46.297Z,23.70
2018-09-19T16:44:14.608Z,23.60
2018-09-19T16:46:42.850Z,23.40
2018-09-19T16:49:11.125Z,23.20
2018-09-19T16:51:39.349Z,23.10
2018-09-19T16:54:07.612Z,22.90
2018-09-19T16:56:35.852Z,22.80
2018-09-19T16:59:04.116Z,22.60
2018-09-19T17:01:32.396Z,22.40
2018-09-19T17:04:00.693Z,22.30
2018-09-19T17:06:28.926Z,22.10
2018-09-19T17:08:57.228Z,22.00
2018-09-19T17:11:25.457Z,21.80
2018-09-19T17:13:53.711Z,21.70
2018-09-19T17:16:21.940Z,21.60
2018-09-19T17:18:50.198Z,21.40
2018-09-19T17:21:18.436Z,21.30
2018-09-19T17:23:46.691Z,21.20
2018-09-19T17:26:15.029Z,21.00
2018-09-19T17:28:44.549Z,20.90
2018-09-19T17:31:12.777Z,20.80
2018-09-19T17:33:41.048Z,20.70
2018-09-19T17:36:09.276Z,20.60
2018-09-19T17:38:37.524Z,20.50
2018-09-19T17:41:05.796Z,20.40
2018-09-19T17:43:34.060Z,20.30
2018-09-19T17:46:02.306Z,20.20
2018-09-19T17:48:30.587Z,20.20
2018-09-19T17:50:58.826Z,20.10
2018-09-19T17:53:27.086Z,20.00
2018-09-19T17:55:55.316Z,20.00
2018-09-19T17:58:23.620Z,19.90
2018-09-19T18:00:51.906Z,19.80
2018-09-19T18:03:20.148Z,19.80
2018-09-19T18:05:48.385Z,19.70
2018-09-19T18:08:16.636Z,19.70
2018-09-19T18:10:44.892Z,19.60
2018-09-19T18:13:13.121Z,19.50
2018-09-19T18:15:41.960Z,19.50
2018-09-19T18:18:10.202Z,19.40
2018-09-19T18:20:38.456Z,19.30
2018-09-19T18:23:06.722Z,19.20
2018-09-19T18:25:34.996Z,19.20
2018-09-19T18:28:03.232Z,19.10
2018-09-19T18:30:31.480Z,19.00
2018-09-19T18:32:59.706Z,18.90
2018-09-19T18:35:27.975Z,18.90
2018-09-19T18:37:56.216Z,18.80
2018-09-19T18:40:24.530Z,18.70
2018-09-19T18:42:52.738Z,18.70
2018-09-19T18:45:20.992Z,18.60
2018-09-19T18:47:49.228Z,18.60
2018-09-19T18:50:17.476Z,18.60
2018-09-19T18:52:45.714Z,18.50
2018-09-19T18:55:13.970Z,18.50
2018-09-19T18:57:42.207Z,18.40
2018-09-19T19:00:10.467Z,18.40
2018-09-19T19:02:38.709Z,18.40
2018-09-19T19:05:06.964Z,18.30
2018-09-19T19:07:35.216Z,18.30
2018-09-19T19:10:03.471Z,18.30
2018-09-19T19:12:31.698Z,18.20
2018-09-19T19:14:59.940Z,18.20
2018-09-19T19:17:28.177Z,18.20
2018-09-19T19:19:56.461Z,18.10
2018-09-19T19:22:24.689Z,18.10
2018-09-19T19:24:52.962Z,18.10
2018-09-19T19:27:21.200Z,18.00
2018-09-19T19:29:49.456Z,18.00
2018-09-19T19:32:17.732Z,18.00
2018-09-19T19:34:45.996Z,18.00
2018-09-19T19:37:14.228Z,17.90
2018-09-19T19:39:42.481Z,17.90
2018-09-19T19:42:10.712Z,17.90
2018-09-19T19:44:38.969Z,17.90
2018-09-19T19:47:07.194Z,17.90
2018-09-19T19:49:35.449Z,17.90
